Main page
METAR-TAF:

METAR-TAF

Airports :

Marianna Municipal Airport

Marianna, Florida, United States

latitude: 30-50-12N, longitude: 085-11-01W, elevation: 112 ft

Current weather observation

The report was made 13 minutes ago, at 12:18 UTC
Wind 8 mph from the South/Southwest
Temperature 73°F
Humidity 100%
Pressure 30.00 in. Hg
Visibility: 3 miles
Overcast at a height of 200 ft
mist

METAR: KMAI 281218Z AUTO 20007KT 3SM BR OVC002 23/23 A3000 RMK AO2 T02330228

Time: 07:31 (12:31 UTC)


TAF: missing

Weather observations and forecasts of more than 4000 airports (METAR and TAF reports).

The available stations are represented by yellow and red dots on the map.

Hover mouse over dot to see the name of the station.

Then click to see weather observations and forecasts.

To change the map : click on the green buttons with a black cross to zoom in, on the green button with a dash to zoom out, or on the green arrows for adjacent maps.


METAR-TAF: